Time;durP1;ratioP1;P1;durP2;ratioP2;P2;SDS_P1;SDS_P2;PMS_P1;PMS_P2;Temp;Humidity;BMP_temperature;BMP_pressure;BME280_temperature;BME280_humidity;BME280_pressure;Samples;Min_cycle;Max_cycle;Signal;HPM_P1;HPM_P2
2022/07/28 00:02:00;;;;;;;11.15;5.38;;;16.00;99.90;;;;;;4981336;28;20031;-93
2022/07/28 00:04:26;;;;;;;10.57;5.28;;;15.90;99.90;;;;;;4981021;28;20022;-95
2022/07/28 00:06:52;;;;;;;8.95;5.63;;;15.90;99.90;;;;;;5000105;28;20092;-92
2022/07/28 00:09:18;;;;;;;9.55;4.75;;;15.80;99.90;;;;;;5004073;28;20108;-95
2022/07/28 00:11:43;;;;;;;8.32;5.15;;;15.80;99.90;;;;;;5003033;28;20084;-93
2022/07/28 00:14:09;;;;;;;7.57;5.03;;;15.80;99.90;;;;;;5000978;28;20073;-95
2022/07/28 00:16:36;;;;;;;12.70;5.68;;;15.80;99.90;;;;;;5000286;28;20030;-94
2022/07/28 00:19:02;;;;;;;13.23;6.85;;;15.70;99.90;;;;;;4988982;28;20035;-95
2022/07/28 00:21:27;;;;;;;11.70;5.45;;;15.70;99.90;;;;;;5001083;28;20034;-94
2022/07/28 00:23:53;;;;;;;11.10;6.60;;;15.60;99.90;;;;;;4998032;28;20022;-93
2022/07/28 00:26:18;;;;;;;13.73;5.97;;;15.60;99.90;;;;;;4998191;28;20046;-94
2022/07/28 00:28:44;;;;;;;12.60;5.10;;;15.50;99.90;;;;;;4999138;28;20038;-94
2022/07/28 00:31:10;;;;;;;8.77;5.95;;;15.60;99.90;;;;;;5000500;28;20029;-93
2022/07/28 00:33:35;;;;;;;8.20;5.47;;;15.60;99.90;;;;;;4997800;28;20054;-93
2022/07/28 00:36:02;;;;;;;9.13;5.13;;;15.50;99.90;;;;;;4997172;28;20031;-94
2022/07/28 00:38:28;;;;;;;9.48;5.10;;;15.50;99.90;;;;;;4996916;28;20037;-94
2022/07/28 00:41:12;;;;;;;8.80;4.53;;;15.50;99.90;;;;;;4997148;28;20484;-94
2022/07/28 00:43:45;;;;;;;6.07;4.35;;;15.50;99.90;;;;;;4996310;28;20055;-94
2022/07/28 00:46:13;;;;;;;9.63;5.05;;;15.40;99.90;;;;;;4980546;28;20026;-94
2022/07/28 00:48:44;;;;;;;6.10;3.67;;;15.30;99.90;;;;;;4979715;28;20030;-94
2022/07/28 00:51:11;;;;;;;8.27;4.28;;;15.30;99.90;;;;;;4980000;28;20072;-93
2022/07/28 00:53:41;;;;;;;5.85;4.15;;;15.30;99.90;;;;;;4979832;28;20031;-96
2022/07/28 00:56:07;;;;;;;8.63;4.43;;;15.20;99.90;;;;;;4979789;28;20507;-96
2022/07/28 00:58:34;;;;;;;10.48;3.67;;;15.20;99.90;;;;;;4995572;28;20026;-95
2022/07/28 01:01:00;;;;;;;7.22;3.63;;;15.30;99.90;;;;;;4979321;28;20023;-95
2022/07/28 01:03:27;;;;;;;6.93;4.03;;;15.20;99.90;;;;;;4995064;28;20030;-94
2022/07/28 01:06:40;;;;;;;7.10;3.55;;;15.20;99.90;;;;;;4978478;28;20026;-93
2022/07/28 01:09:17;;;;;;;8.55;3.97;;;15.20;99.90;;;;;;4978667;28;20105;-94
2022/07/28 01:12:00;;;;;;;8.57;4.28;;;15.30;99.90;;;;;;4978838;28;20026;-94
2022/07/28 01:14:51;;;;;;;11.23;4.45;;;15.30;99.90;;;;;;4979275;28;20105;-94
2022/07/28 01:17:33;;;;;;;9.05;3.97;;;15.20;99.90;;;;;;4978917;28;20030;-93
2022/07/28 01:20:11;;;;;;;9.63;4.03;;;15.20;99.90;;;;;;4979018;28;20031;-92
2022/07/28 01:23:00;;;;;;;8.65;4.28;;;15.20;99.90;;;;;;4979107;28;20031;-94
2022/07/28 01:25:43;;;;;;;8.05;3.80;;;15.20;99.90;;;;;;4930435;28;20042;-93
2022/07/28 01:28:42;;;;;;;7.75;4.35;;;15.20;99.90;;;;;;4978665;28;20028;-95
2022/07/28 01:31:15;;;;;;;7.35;3.75;;;15.30;99.90;;;;;;4972443;28;20046;-94
2022/07/28 01:33:46;;;;;;;8.52;4.57;;;15.20;99.90;;;;;;4979711;28;20030;-95
2022/07/28 01:36:15;;;;;;;;;;;15.20;99.90;;;;;;4978776;28;20117;-95
2022/07/28 01:38:43;;;;;;;6.35;4.03;;;15.20;99.90;;;;;;4978858;28;19913;-95
2022/07/28 01:41:13;;;;;;;6.88;4.70;;;15.20;99.90;;;;;;4978686;28;20046;-94
2022/07/28 01:43:43;;;;;;;6.50;3.70;;;15.10;99.90;;;;;;4995972;28;20033;-95
2022/07/28 01:46:10;;;;;;;9.48;3.97;;;15.10;99.90;;;;;;4978425;28;20030;-94
2022/07/28 01:48:38;;;;;;;10.45;4.78;;;15.10;99.90;;;;;;4978004;28;20019;-95
2022/07/28 01:51:06;;;;;;;8.38;5.22;;;15.10;99.90;;;;;;4978804;28;20096;-94
2022/07/28 01:53:35;;;;;;;10.18;5.15;;;15.10;99.90;;;;;;4978143;28;20039;-95
2022/07/28 01:56:03;;;;;;;5.80;4.68;;;15.10;99.90;;;;;;4978278;28;20109;-95
2022/07/28 01:58:30;;;;;;;8.93;5.40;;;15.10;99.90;;;;;;4978188;28;20034;-95
2022/07/28 02:00:57;;;;;;;10.32;5.40;;;15.10;99.90;;;;;;4978018;28;20022;-95
2022/07/28 02:03:26;;;;;;;8.07;5.45;;;15.10;99.90;;;;;;4977666;28;20117;-94
2022/07/28 02:05:54;;;;;;;11.32;5.35;;;15.10;99.90;;;;;;4977882;28;20049;-94
2022/07/28 02:08:22;;;;;;;8.93;5.38;;;15.00;99.90;;;;;;4978092;28;20034;-93
2022/07/28 02:13:38;;;;;;;7.63;5.65;;;15.00;99.90;;;;;;4995603;28;20033;-93
2022/07/28 02:16:07;;;;;;;7.78;5.30;;;15.00;99.90;;;;;;4977909;28;20026;-95
2022/07/28 02:18:35;;;;;;;8.10;5.68;;;15.00;99.90;;;;;;4978057;28;20023;-94
2022/07/28 02:21:02;;;;;;;9.35;5.40;;;15.00;99.90;;;;;;4978589;28;20030;-95
2022/07/28 02:23:28;;;;;;;14.10;6.07;;;15.00;99.90;;;;;;4978760;28;20496;-95
2022/07/28 02:25:56;;;;;;;10.43;5.78;;;15.00;99.90;;;;;;4978070;28;20069;-95
2022/07/28 02:28:24;;;;;;;9.60;5.53;;;15.00;99.90;;;;;;4977466;28;20030;-94
2022/07/28 02:30:57;;;;;;;8.43;6.03;;;15.00;99.90;;;;;;4977389;28;20479;-95
2022/07/28 02:33:25;;;;;;;11.35;6.07;;;15.00;99.90;;;;;;4978132;28;20034;-94
2022/07/28 02:36:12;;;;;;;12.48;6.13;;;15.00;99.90;;;;;;4977199;28;20526;-94
2022/07/28 02:38:49;;;;;;;11.20;6.00;;;14.90;99.90;;;;;;4978215;28;20193;-96
2022/07/28 02:41:22;;;;;;;12.90;6.10;;;14.90;99.90;;;;;;4977778;28;20085;-96
2022/07/28 02:43:51;;;;;;;10.02;6.40;;;14.90;99.90;;;;;;4981708;28;20018;-93
2022/07/28 02:46:22;;;;;;;9.90;5.97;;;14.80;99.90;;;;;;4976163;28;20026;-93
2022/07/28 02:48:53;;;;;;;9.40;5.78;;;14.80;99.90;;;;;;4976695;28;20046;-93
2022/07/28 02:51:23;;;;;;;9.50;6.07;;;14.70;99.90;;;;;;4976813;28;20081;-94
2022/07/28 02:53:51;;;;;;;12.30;6.65;;;14.60;99.90;;;;;;4976778;28;20026;-95
2022/07/28 02:56:17;;;;;;;11.65;6.03;;;14.60;99.90;;;;;;4976974;28;20555;-95
2022/07/28 02:58:44;;;;;;;8.35;5.78;;;14.60;99.90;;;;;;4976287;28;20476;-96
2022/07/28 03:01:11;;;;;;;9.65;5.40;;;14.50;99.90;;;;;;4976471;28;20026;-93
2022/07/28 03:03:37;;;;;;;7.25;5.03;;;14.50;99.90;;;;;;4976299;28;20129;-95
2022/07/28 03:06:03;;;;;;;10.48;5.05;;;14.40;99.90;;;;;;4977996;28;20035;-94
2022/07/28 03:08:30;;;;;;;8.98;5.28;;;14.40;99.90;;;;;;4993191;28;20068;-96
2022/07/28 03:11:14;;;;;;;6.28;4.40;;;14.40;99.90;;;;;;4977259;28;20057;-94
2022/07/28 03:13:40;;;;;;;7.90;5.53;;;14.40;99.90;;;;;;4975698;28;20125;-94
2022/07/28 03:16:06;;;;;;;7.65;5.15;;;14.40;99.90;;;;;;4992990;28;20069;-95
2022/07/28 03:18:32;;;;;;;9.07;5.28;;;14.40;99.90;;;;;;4976374;28;20121;-94
2022/07/28 03:20:59;;;;;;;11.88;5.85;;;14.30;99.90;;;;;;4992860;28;20023;-94
2022/07/28 03:23:35;;;;;;;6.88;5.22;;;14.30;99.90;;;;;;4976101;28;20085;-94
2022/07/28 03:26:06;;;;;;;8.23;4.57;;;14.30;99.90;;;;;;4975999;28;20133;-95
2022/07/28 03:28:34;;;;;;;9.32;5.90;;;14.30;99.90;;;;;;4976380;28;20431;-95
2022/07/28 03:31:05;;;;;;;10.77;5.47;;;14.30;99.90;;;;;;4975856;28;20502;-95
2022/07/28 03:33:31;;;;;;;9.75;5.85;;;14.30;99.90;;;;;;4977697;28;20037;-94
2022/07/28 03:36:00;;;;;;;8.65;5.47;;;14.30;99.90;;;;;;4980187;28;20031;-95
2022/07/28 03:38:37;;;;;;;7.80;6.20;;;14.30;99.90;;;;;;4979986;28;20125;-94
2022/07/28 03:41:06;;;;;;;9.48;6.30;;;14.30;99.90;;;;;;4980367;28;20117;-93
2022/07/28 03:43:33;;;;;;;9.32;5.60;;;14.20;99.90;;;;;;4979632;28;20120;-93
2022/07/28 03:45:59;;;;;;;10.18;5.85;;;14.20;99.90;;;;;;4979618;28;20022;-93
2022/07/28 03:48:32;;;;;;;11.70;5.55;;;14.20;99.90;;;;;;4996370;28;20129;-94
2022/07/28 03:50:58;;;;;;;8.20;5.18;;;14.30;99.90;;;;;;4980176;28;20026;-93
2022/07/28 03:53:25;;;;;;;6.72;4.75;;;14.30;99.90;;;;;;4997106;28;20032;-95
2022/07/28 03:55:52;;;;;;;9.18;4.32;;;14.30;99.90;;;;;;4979542;28;20214;-95
2022/07/28 03:58:27;;;;;;;5.88;3.20;;;14.30;99.90;;;;;;4979889;28;20026;-95
2022/07/28 04:00:53;;;;;;;9.73;4.70;;;14.20;99.90;;;;;;4979743;28;20026;-95
2022/07/28 04:03:20;;;;;;;8.98;3.58;;;14.30;99.90;;;;;;4996378;28;20033;-94
2022/07/28 04:05:45;;;;;;;6.20;3.95;;;14.30;99.90;;;;;;4963594;28;20034;-95
2022/07/28 04:08:11;;;;;;;5.20;3.72;;;14.30;99.90;;;;;;4996371;28;20613;-94
2022/07/28 04:10:37;;;;;;;5.40;3.65;;;14.20;99.90;;;;;;4979935;28;20217;-96
2022/07/28 04:13:04;;;;;;;8.75;3.38;;;14.20;99.90;;;;;;4979481;28;20034;-95
2022/07/28 04:15:31;;;;;;;7.10;3.22;;;14.20;99.90;;;;;;4996975;28;20037;-95
2022/07/28 04:17:57;;;;;;;3.72;3.10;;;14.20;99.90;;;;;;4979776;28;20110;-95
2022/07/28 04:20:25;;;;;;;6.90;3.10;;;14.20;99.90;;;;;;4979694;28;20026;-95
2022/07/28 04:22:51;;;;;;;4.68;2.30;;;14.20;99.90;;;;;;4979654;28;20034;-96
2022/07/28 04:25:20;;;;;;;6.53;2.78;;;14.20;99.90;;;;;;4979089;28;20100;-96
2022/07/28 04:27:46;;;;;;;7.38;2.90;;;14.20;99.90;;;;;;4979530;28;20061;-95
2022/07/28 04:30:16;;;;;;;11.05;3.85;;;14.20;99.90;;;;;;4979380;28;20504;-95
2022/07/28 04:32:43;;;;;;;6.50;2.72;;;14.20;99.90;;;;;;4981564;28;20032;-96
2022/07/28 04:35:09;;;;;;;3.47;2.50;;;14.20;99.90;;;;;;4982424;28;20037;-94
2022/07/28 04:37:35;;;;;;;7.20;3.17;;;14.20;99.90;;;;;;4997400;28;20117;-94
2022/07/28 04:40:01;;;;;;;6.13;2.20;;;14.20;99.90;;;;;;4980646;28;20038;-95
2022/07/28 04:42:27;;;;;;;5.18;2.22;;;14.20;99.90;;;;;;4979441;28;20031;-95
2022/07/28 04:44:53;;;;;;;3.90;2.00;;;14.20;99.90;;;;;;4994969;28;20487;-95
2022/07/28 04:47:19;;;;;;;3.78;2.05;;;14.20;99.90;;;;;;4995102;28;20491;-94
2022/07/28 04:49:45;;;;;;;4.65;2.20;;;14.20;99.90;;;;;;4975859;28;20524;-94
2022/07/28 04:52:11;;;;;;;5.68;2.50;;;14.20;99.90;;;;;;4973200;28;20479;-95
2022/07/28 04:54:37;;;;;;;4.80;2.33;;;14.20;99.90;;;;;;4976005;28;20476;-94
2022/07/28 04:57:04;;;;;;;4.70;2.00;;;14.20;99.90;;;;;;4990439;28;20031;-96
2022/07/28 04:59:30;;;;;;;5.50;2.40;;;14.20;99.90;;;;;;4978742;28;20033;-94
2022/07/28 05:01:56;;;;;;;6.07;2.50;;;14.20;99.90;;;;;;4994815;28;20022;-95
2022/07/28 05:04:23;;;;;;;7.45;3.20;;;14.10;99.90;;;;;;4994093;28;20259;-96
2022/07/28 05:06:49;;;;;;;9.55;2.50;;;14.10;99.90;;;;;;4979051;28;20165;-94
2022/07/28 05:09:15;;;;;;;4.63;2.30;;;14.10;99.90;;;;;;4995405;28;20094;-95
2022/07/28 05:11:41;;;;;;;8.10;2.50;;;14.20;99.90;;;;;;4979160;28;20038;-95
2022/07/28 05:14:07;;;;;;;3.15;2.10;;;14.10;99.90;;;;;;4979448;28;20120;-96
2022/07/28 05:16:33;;;;;;;4.40;2.28;;;14.10;99.90;;;;;;4983566;28;20034;-95
2022/07/28 05:18:59;;;;;;;5.22;2.38;;;14.20;99.90;;;;;;5003609;28;20031;-96
2022/07/28 05:21:25;;;;;;;8.45;2.50;;;14.20;99.90;;;;;;5002005;28;20096;-96
2022/07/28 05:23:50;;;;;;;4.15;2.25;;;14.20;99.90;;;;;;4993232;28;20034;-96
2022/07/28 05:26:16;;;;;;;7.93;2.90;;;14.20;99.90;;;;;;4988404;28;20560;-95
2022/07/28 05:28:42;;;;;;;4.60;2.40;;;14.20;99.90;;;;;;4987209;28;20030;-95
2022/07/28 05:31:07;;;;;;;3.17;2.30;;;14.30;99.90;;;;;;4989290;28;20054;-96
2022/07/28 05:33:36;;;;;;;3.55;2.40;;;14.30;99.90;;;;;;4984790;28;20124;-95
2022/07/28 05:36:03;;;;;;;9.00;2.35;;;14.30;99.90;;;;;;4981512;28;20057;-96
2022/07/28 05:38:30;;;;;;;5.80;2.80;;;14.30;99.90;;;;;;4978931;28;20026;-96
2022/07/28 05:40:56;;;;;;;6.95;2.38;;;14.30;99.90;;;;;;4981876;28;20136;-96
2022/07/28 05:43:22;;;;;;;4.53;2.92;;;14.30;99.90;;;;;;4988123;28;20057;-95
2022/07/28 05:45:48;;;;;;;5.97;2.35;;;14.40;99.90;;;;;;4994947;28;20049;-95
2022/07/28 05:48:18;;;;;;;4.05;2.40;;;14.40;99.90;;;;;;4981047;28;20026;-95
2022/07/28 05:50:44;;;;;;;3.70;2.27;;;14.30;99.90;;;;;;4980709;28;20042;-95
2022/07/28 05:53:09;;;;;;;5.10;2.45;;;14.30;99.90;;;;;;4986250;28;20026;-95
2022/07/28 05:55:35;;;;;;;5.70;2.25;;;14.30;99.90;;;;;;4990526;28;20034;-96
2022/07/28 05:58:01;;;;;;;8.65;2.60;;;14.30;99.90;;;;;;4987164;28;20045;-95
2022/07/28 06:00:27;;;;;;;11.23;2.70;;;14.30;99.90;;;;;;4989780;28;20061;-95
2022/07/28 06:02:52;;;;;;;6.70;2.55;;;14.30;99.90;;;;;;4990083;28;20044;-95
2022/07/28 06:05:20;;;;;;;3.78;2.40;;;14.30;99.90;;;;;;4990978;28;20490;-96
2022/07/28 06:07:48;;;;;;;4.68;2.20;;;14.30;99.90;;;;;;4990491;28;20034;-96
2022/07/28 06:10:17;;;;;;;4.03;1.98;;;14.30;99.90;;;;;;4989103;28;20033;-94
2022/07/28 06:12:49;;;;;;;4.32;1.85;;;14.30;99.90;;;;;;4989393;28;20022;-96
2022/07/28 06:15:17;;;;;;;7.22;2.55;;;14.30;99.90;;;;;;4989985;28;20487;-96
2022/07/28 06:17:43;;;;;;;8.20;2.05;;;14.30;99.90;;;;;;4984234;28;20061;-96
2022/07/28 06:20:45;;;;;;;3.92;1.80;;;14.30;99.90;;;;;;4984767;28;20084;-96
2022/07/28 06:23:40;;;;;;;5.60;2.50;;;14.30;99.90;;;;;;4992970;28;20042;-94
2022/07/28 06:26:22;;;;;;;5.35;2.25;;;14.30;99.90;;;;;;5007744;28;20054;-95
2022/07/28 06:28:48;;;;;;;3.95;2.40;;;14.40;99.90;;;;;;4994123;28;20101;-95
2022/07/28 06:31:14;;;;;;;5.25;1.88;;;14.40;99.90;;;;;;4990477;28;20068;-95
2022/07/28 06:33:40;;;;;;;6.70;2.35;;;14.40;99.90;;;;;;4988406;28;20030;-96
2022/07/28 06:36:05;;;;;;;2.92;1.90;;;14.40;99.90;;;;;;4986806;28;20141;-96
2022/07/28 06:38:31;;;;;;;3.83;2.30;;;14.50;99.90;;;;;;5001122;28;20022;-96
2022/07/28 06:40:58;;;;;;;3.25;1.80;;;14.50;99.90;;;;;;4984681;28;20030;-96
2022/07/28 06:43:24;;;;;;;6.78;2.15;;;14.50;99.90;;;;;;4984135;28;20030;-95
2022/07/28 06:45:50;;;;;;;5.38;2.10;;;14.50;99.90;;;;;;5002986;28;20182;-95
2022/07/28 06:48:16;;;;;;;3.17;2.30;;;14.50;99.90;;;;;;4987406;28;20096;-95
2022/07/28 06:50:42;;;;;;;2.15;1.92;;;14.60;99.90;;;;;;4979892;28;20034;-95
2022/07/28 06:53:08;;;;;;;5.20;2.50;;;14.60;99.90;;;;;;4980062;28;20019;-96
2022/07/28 06:55:33;;;;;;;2.75;2.20;;;14.60;99.90;;;;;;4980784;28;20038;-95
2022/07/28 06:57:59;;;;;;;6.60;2.80;;;14.60;99.90;;;;;;4978170;28;20022;-94
2022/07/28 07:00:25;;;;;;;4.03;2.40;;;14.70;99.90;;;;;;4978997;28;20050;-95
2022/07/28 07:02:51;;;;;;;5.18;2.42;;;14.70;99.90;;;;;;4978310;28;20133;-95
2022/07/28 07:05:16;;;;;;;4.80;1.92;;;14.60;99.90;;;;;;4995365;28;20030;-95
2022/07/28 07:07:42;;;;;;;6.43;2.67;;;14.60;99.90;;;;;;4978937;28;20022;-96
2022/07/28 07:10:08;;;;;;;7.40;2.20;;;14.60;99.90;;;;;;4995324;28;20034;-95
2022/07/28 07:12:35;;;;;;;5.65;2.13;;;14.60;99.90;;;;;;4977847;28;20429;-95
2022/07/28 07:15:03;;;;;;;5.95;2.10;;;14.60;99.90;;;;;;4978032;28;20022;-96
2022/07/28 07:17:28;;;;;;;6.50;2.00;;;14.70;99.90;;;;;;4977700;28;20030;-95
2022/07/28 07:19:54;;;;;;;5.75;2.30;;;14.60;99.90;;;;;;4977686;28;20033;-92
2022/07/28 07:22:20;;;;;;;6.47;2.10;;;14.70;99.90;;;;;;4977839;28;20038;-95
2022/07/28 07:24:46;;;;;;;5.05;2.30;;;14.70;99.90;;;;;;4981067;28;20026;-96
2022/07/28 07:27:12;;;;;;;9.27;2.88;;;14.60;99.90;;;;;;4987539;28;20054;-95
2022/07/28 07:29:38;;;;;;;5.82;2.20;;;14.70;99.90;;;;;;5000231;28;20034;-95
2022/07/28 07:32:03;;;;;;;2.85;2.33;;;14.60;99.90;;;;;;4978251;28;20080;-94
2022/07/28 07:34:29;;;;;;;3.97;2.25;;;14.60;99.90;;;;;;4977200;28;20037;-96
2022/07/28 07:36:55;;;;;;;10.85;2.75;;;14.70;99.90;;;;;;4978813;28;20113;-95
2022/07/28 07:39:20;;;;;;;4.75;2.28;;;14.70;99.90;;;;;;4996148;28;20455;-94
2022/07/28 07:41:46;;;;;;;4.35;2.17;;;14.70;99.90;;;;;;4978012;28;20023;-96
2022/07/28 07:44:12;;;;;;;7.55;2.30;;;14.70;99.90;;;;;;4996361;28;20022;-94
2022/07/28 07:46:38;;;;;;;6.30;2.50;;;14.80;99.90;;;;;;4980121;28;20026;-96
2022/07/28 07:49:04;;;;;;;7.38;2.30;;;14.80;99.90;;;;;;4997770;28;20049;-95
2022/07/28 07:51:30;;;;;;;6.63;2.50;;;14.80;99.90;;;;;;4980604;28;20026;-96
2022/07/28 07:53:56;;;;;;;6.18;2.83;;;14.90;99.90;;;;;;4980399;28;20026;-95
2022/07/28 07:56:22;;;;;;;4.70;3.08;;;14.90;99.90;;;;;;4993238;28;20024;-96
2022/07/28 07:58:48;;;;;;;3.95;2.90;;;14.90;99.90;;;;;;4987585;28;20076;-96
2022/07/28 08:01:14;;;;;;;10.27;2.58;;;14.90;99.90;;;;;;4990761;28;20026;-96
2022/07/28 08:03:42;;;;;;;3.97;2.30;;;14.90;99.90;;;;;;4989030;28;20026;-95
2022/07/28 08:06:08;;;;;;;7.15;2.95;;;14.90;99.90;;;;;;4991279;28;20023;-96
2022/07/28 08:08:33;;;;;;;4.53;2.40;;;15.00;99.90;;;;;;5003601;28;20558;-96
2022/07/28 08:10:59;;;;;;;6.30;2.90;;;15.00;99.90;;;;;;4983367;28;20062;-96
2022/07/28 08:13:25;;;;;;;8.95;3.10;;;15.10;99.90;;;;;;4995940;28;20034;-96
2022/07/28 08:15:58;;;;;;;9.55;2.42;;;15.10;99.90;;;;;;4998609;28;20041;-96
2022/07/28 08:18:24;;;;;;;10.50;2.50;;;15.20;99.90;;;;;;4993068;28;20058;-96
2022/07/28 08:20:50;;;;;;;6.25;2.10;;;15.20;99.90;;;;;;5015806;28;20029;-90
2022/07/28 08:23:16;;;;;;;6.95;2.50;;;15.30;99.90;;;;;;4995660;28;20039;-96
2022/07/28 08:25:43;;;;;;;6.63;2.50;;;15.30;99.90;;;;;;4992324;28;20073;-96
2022/07/28 08:28:08;;;;;;;4.72;2.63;;;15.40;99.90;;;;;;4999453;28;20113;-96
2022/07/28 08:30:34;;;;;;;4.68;2.20;;;15.40;99.90;;;;;;5012279;28;20487;-96
2022/07/28 08:33:01;;;;;;;4.30;2.25;;;15.40;99.90;;;;;;4998557;28;20022;-96
2022/07/28 08:35:27;;;;;;;4.47;2.45;;;15.50;99.90;;;;;;5012388;28;20022;-96
2022/07/28 08:37:53;;;;;;;6.95;2.70;;;15.50;99.90;;;;;;4996318;28;20070;-96
2022/07/28 08:40:19;;;;;;;6.28;1.90;;;15.60;99.90;;;;;;4994558;28;20053;-95
2022/07/28 08:42:54;;;;;;;4.38;2.58;;;15.60;99.90;;;;;;4977281;28;20106;-95
2022/07/28 08:45:20;;;;;;;7.22;2.83;;;15.70;99.90;;;;;;4982889;28;20026;-96
2022/07/28 08:47:48;;;;;;;5.32;2.83;;;15.80;99.90;;;;;;4984829;28;20026;-96
2022/07/28 08:50:14;;;;;;;5.40;2.90;;;15.80;99.90;;;;;;4999426;28;20054;-96
2022/07/28 08:52:44;;;;;;;17.05;3.45;;;15.90;99.90;;;;;;4983236;28;20156;-96
2022/07/28 08:55:11;;;;;;;5.10;2.75;;;16.00;99.90;;;;;;5012995;28;20030;-95
2022/07/28 08:57:40;;;;;;;8.00;3.20;;;16.00;99.90;;;;;;4981708;28;20037;-92
2022/07/28 09:00:11;;;;;;;9.93;2.60;;;16.10;99.90;;;;;;4979448;28;20023;-94
2022/07/28 09:02:41;;;;;;;8.98;2.75;;;16.10;99.90;;;;;;4979224;28;20023;-95
2022/07/28 09:05:08;;;;;;;5.65;2.58;;;16.20;99.90;;;;;;4996851;28;20045;-94
2022/07/28 09:07:43;;;;;;;5.75;2.47;;;16.20;99.90;;;;;;4979880;28;20026;-94
2022/07/28 09:10:10;;;;;;;6.88;2.40;;;16.30;99.90;;;;;;4997747;28;20030;-95
2022/07/28 09:12:36;;;;;;;7.88;3.05;;;16.40;99.90;;;;;;4998005;28;20018;-95
2022/07/28 09:15:06;;;;;;;5.43;2.60;;;16.40;99.90;;;;;;4998017;28;20056;-93
2022/07/28 09:17:33;;;;;;;8.23;2.78;;;16.50;99.90;;;;;;4982525;28;20022;-94
2022/07/28 09:19:59;;;;;;;3.90;2.08;;;16.50;99.90;;;;;;4979786;28;20558;-95
2022/07/28 09:22:25;;;;;;;5.93;2.75;;;16.60;99.90;;;;;;4980225;28;20026;-95
2022/07/28 09:24:51;;;;;;;7.07;2.92;;;16.70;99.90;;;;;;4999985;28;20049;-95
2022/07/28 09:27:21;;;;;;;5.18;3.30;;;16.80;99.90;;;;;;5001078;28;20046;-96
2022/07/28 09:29:58;;;;;;;6.90;2.70;;;16.90;99.90;;;;;;5002325;28;20030;-95
2022/07/28 09:32:26;;;;;;;7.63;3.63;;;17.00;99.90;;;;;;4999935;28;20031;-96
2022/07/28 09:34:52;;;;;;;7.00;3.38;;;17.20;99.90;;;;;;5005628;28;20034;-95
2022/07/28 09:37:20;;;;;;;7.10;2.95;;;17.30;99.90;;;;;;5020222;28;20033;-94
2022/07/28 09:39:46;;;;;;;5.85;3.17;;;17.30;99.90;;;;;;5000981;28;20467;-95
2022/07/28 09:42:12;;;;;;;8.60;3.22;;;17.40;99.90;;;;;;4988951;28;20368;-94
2022/07/28 09:44:38;;;;;;;13.40;3.67;;;17.40;99.90;;;;;;5001006;28;20041;-95
2022/07/28 09:47:20;;;;;;;10.65;3.67;;;17.50;99.90;;;;;;5001391;28;20077;-93
2022/07/28 09:49:46;;;;;;;6.93;2.90;;;17.50;99.90;;;;;;4999234;28;20042;-92
2022/07/28 09:52:12;;;;;;;10.18;3.35;;;17.50;99.90;;;;;;4976532;28;20404;-94
2022/07/28 09:54:37;;;;;;;8.98;3.90;;;17.50;99.90;;;;;;5000174;28;20026;-94
2022/07/28 09:57:03;;;;;;;9.48;3.40;;;17.60;99.90;;;;;;4998980;28;20031;-93
2022/07/28 09:59:43;;;;;;;10.65;3.58;;;17.60;99.90;;;;;;5001237;28;20018;-95
2022/07/28 10:02:11;;;;;;;7.47;3.33;;;17.60;99.90;;;;;;4988840;28;20026;-94
2022/07/28 10:04:40;;;;;;;17.40;3.47;;;17.70;99.90;;;;;;4991668;28;20027;-95
2022/07/28 10:07:08;;;;;;;8.32;3.80;;;17.70;99.90;;;;;;4998960;28;20030;-94
2022/07/28 10:09:34;;;;;;;6.60;3.47;;;17.70;99.90;;;;;;4997080;28;20034;-94
2022/07/28 10:12:23;;;;;;;8.98;4.07;;;17.80;99.90;;;;;;4994585;28;20037;-93
2022/07/28 10:14:51;;;;;;;11.05;4.32;;;17.90;99.90;;;;;;4993055;28;20026;-96
2022/07/28 10:17:29;;;;;;;12.68;4.45;;;17.90;99.90;;;;;;5007725;28;20076;-95
2022/07/28 10:20:00;;;;;;;6.75;3.03;;;18.00;99.90;;;;;;5004663;28;20080;-94
2022/07/28 10:22:32;;;;;;;6.78;3.38;;;18.10;99.90;;;;;;4989161;28;20093;-95
2022/07/28 10:25:12;;;;;;;5.68;3.10;;;18.20;99.90;;;;;;4987824;28;20090;-94
2022/07/28 10:27:40;;;;;;;9.43;3.40;;;18.30;99.90;;;;;;4989362;28;20042;-95
2022/07/28 10:30:07;;;;;;;9.02;3.55;;;18.30;99.90;;;;;;5006826;28;20050;-94
2022/07/28 10:32:42;;;;;;;10.65;3.67;;;18.40;99.90;;;;;;4997538;28;20019;-94
2022/07/28 10:35:11;;;;;;;9.52;3.53;;;18.50;99.90;;;;;;5016123;28;20014;-94
2022/07/28 10:38:01;;;;;;;7.57;3.25;;;18.50;99.90;;;;;;5010272;28;20113;-94
2022/07/28 10:40:34;;;;;;;9.52;2.92;;;18.60;99.90;;;;;;4988636;28;20026;-95
2022/07/28 10:43:01;;;;;;;7.25;2.80;;;18.70;99.90;;;;;;4989899;28;20031;-95
2022/07/28 10:45:28;;;;;;;4.85;2.40;;;18.90;99.90;;;;;;5005767;28;20087;-94
2022/07/28 10:47:54;;;;;;;5.95;2.35;;;18.90;99.90;;;;;;4979981;28;20026;-95
2022/07/28 10:50:23;;;;;;;7.15;2.67;;;19.00;99.90;;;;;;4983445;28;20030;-94
2022/07/28 10:52:49;;;;;;;8.45;2.40;;;19.10;99.90;;;;;;4982406;28;20076;-95
2022/07/28 10:55:20;;;;;;;5.72;2.83;;;19.20;99.90;;;;;;4981724;28;20112;-95
2022/07/28 10:58:10;;;;;;;6.32;2.60;;;19.30;99.90;;;;;;4980456;28;20081;-94
2022/07/28 11:00:45;;;;;;;9.43;2.60;;;19.40;99.90;;;;;;4977226;28;20508;-94
2022/07/28 11:03:34;;;;;;;5.32;2.42;;;19.50;99.90;;;;;;4964338;28;20054;-94
2022/07/28 11:06:25;;;;;;;12.02;2.50;;;19.70;99.90;;;;;;4959372;28;20034;-93
2022/07/28 11:08:56;;;;;;;3.88;2.28;;;19.80;99.90;;;;;;4959319;28;20046;-95
2022/07/28 11:11:44;;;;;;;7.18;2.45;;;19.90;99.90;;;;;;4975610;28;20123;-94
2022/07/28 11:14:44;;;;;;;7.35;2.88;;;19.80;99.90;;;;;;4959390;28;20057;-94
2022/07/28 11:17:10;;;;;;;9.02;2.10;;;19.90;99.90;;;;;;4976559;28;20034;-95
2022/07/28 11:19:44;;;;;;;4.90;2.25;;;20.00;99.90;;;;;;4996243;28;20033;-95
2022/07/28 11:22:20;;;;;;;6.18;1.92;;;20.10;99.90;;;;;;4978867;28;20041;-96
2022/07/28 11:25:01;;;;;;;4.97;1.70;;;20.20;99.90;;;;;;4964086;28;20031;-96
2022/07/28 11:27:44;;;;;;;3.88;1.60;;;20.20;99.90;;;;;;4973797;28;20061;-95
2022/07/28 11:30:34;;;;;;;7.38;1.88;;;20.30;99.10;;;;;;4983355;28;20078;-94
2022/07/28 11:33:01;;;;;;;4.13;1.37;;;20.40;98.10;;;;;;4986022;28;20033;-95
2022/07/28 11:35:28;;;;;;;6.15;2.35;;;20.30;97.60;;;;;;4978838;28;20277;-92
2022/07/28 11:38:00;;;;;;;7.07;1.90;;;20.40;97.50;;;;;;4993999;28;20021;-89
2022/07/28 11:40:43;;;;;;;2.83;1.65;;;20.40;97.10;;;;;;4981588;28;20107;-92
2022/07/28 11:43:25;;;;;;;6.63;1.88;;;20.50;97.00;;;;;;4989818;28;20082;-91
2022/07/28 11:46:14;;;;;;;6.68;1.75;;;20.60;96.20;;;;;;4998889;28;20034;-92
2022/07/28 11:48:41;;;;;;;8.63;1.92;;;20.60;95.80;;;;;;4991383;28;20066;-95
2022/07/28 11:51:06;;;;;;;2.17;1.73;;;20.70;95.70;;;;;;4981127;28;20110;-94
2022/07/28 11:53:42;;;;;;;7.38;1.63;;;20.90;95.40;;;;;;5008154;28;20018;-94
2022/07/28 11:56:12;;;;;;;6.00;1.40;;;20.90;94.30;;;;;;5011336;28;20006;-93
2022/07/28 11:58:44;;;;;;;4.82;1.73;;;21.10;94.10;;;;;;5009766;28;20098;-91
2022/07/28 12:01:23;;;;;;;5.38;1.52;;;21.20;93.20;;;;;;5003274;28;20018;-88
2022/07/28 12:03:52;;;;;;;4.10;1.30;;;21.20;92.70;;;;;;5021323;28;20062;-88
2022/07/28 12:06:21;;;;;;;5.47;1.35;;;21.20;92.30;;;;;;5021828;28;20053;-93
2022/07/28 12:08:50;;;;;;;4.82;1.40;;;21.30;91.70;;;;;;4999634;28;20038;-88
2022/07/28 12:11:17;;;;;;;6.47;1.70;;;21.40;91.30;;;;;;5021863;28;20014;-86
2022/07/28 12:13:43;;;;;;;5.32;1.70;;;21.50;90.70;;;;;;5021680;28;20014;-88
2022/07/28 12:16:09;;;;;;;4.78;1.77;;;21.60;90.50;;;;;;5004430;28;20022;-88
2022/07/28 12:18:40;;;;;;;3.38;1.98;;;21.70;89.80;;;;;;5020475;28;20022;-87
2022/07/28 12:21:06;;;;;;;3.03;1.40;;;21.70;89.10;;;;;;4996149;28;20045;-90
2022/07/28 12:23:35;;;;;;;6.45;1.70;;;21.70;88.50;;;;;;4999002;28;20011;-90
2022/07/28 12:26:03;;;;;;;6.80;2.10;;;21.70;87.80;;;;;;5012999;28;20069;-89
2022/07/28 12:28:31;;;;;;;2.45;1.73;;;21.70;88.50;;;;;;5000323;28;20038;-89
2022/07/28 12:31:11;;;;;;;4.78;1.83;;;21.70;88.40;;;;;;5005763;28;20027;-90
2022/07/28 12:33:37;;;;;;;6.53;1.80;;;21.70;88.10;;;;;;5003474;28;20099;-93
2022/07/28 12:36:04;;;;;;;4.85;1.60;;;21.60;87.60;;;;;;5020060;28;20018;-89
2022/07/28 12:38:30;;;;;;;4.82;1.63;;;21.60;87.70;;;;;;4998662;28;20019;-92
2022/07/28 12:40:57;;;;;;;6.68;1.70;;;21.70;88.00;;;;;;4981373;28;20034;-86
2022/07/28 12:43:26;;;;;;;5.47;1.40;;;21.80;87.10;;;;;;4983580;28;20014;-92
2022/07/28 12:45:52;;;;;;;4.47;1.48;;;21.80;86.20;;;;;;4986732;28;20014;-95
2022/07/28 12:48:18;;;;;;;2.38;1.38;;;21.80;85.10;;;;;;5002142;28;20028;-95
2022/07/28 12:50:45;;;;;;;3.45;1.63;;;21.80;84.90;;;;;;5020016;28;20041;-90
2022/07/28 12:53:12;;;;;;;6.55;2.72;;;21.80;84.30;;;;;;5019247;28;20030;-90
2022/07/28 12:55:42;;;;;;;6.65;1.90;;;21.70;83.50;;;;;;4999996;28;20110;-89
2022/07/28 12:58:22;;;;;;;4.68;1.50;;;21.70;82.50;;;;;;5019228;28;20034;-95
2022/07/28 13:00:51;;;;;;;3.55;1.48;;;21.50;81.80;;;;;;5017572;28;20046;-93